Time,TemperatureF,DewpointF,PressureIn,WindDirection,WindDirectionDegrees,WindSpeedMPH,WindSpeedGustMPH,Humidity,HourlyPrecipIn,Conditions,Clouds,dailyrainin,SoftwareType,DateUTC
2013-02-25 00:12:00,29.8,24.0,29.96,ESE,110,2.0,2.0,80,0.00,,,0.00,weatherlink.com 1.10,2013-02-25 07:12:00,
2013-02-25 00:27:00,30.2,24.0,29.96,ESE,110,0.0,0.0,77,0.00,,,0.00,weatherlink.com 1.10,2013-02-25 07:27:00,
2013-02-25 00:42:00,30.6,25.0,29.97,ESE,110,0.0,0.0,81,0.00,,,0.00,weatherlink.com 1.10,2013-02-25 07:42:00,
2013-02-25 00:57:00,32.4,25.0,29.98,ESE,110,0.0,0.0,75,0.00,,,0.00,weatherlink.com 1.10,2013-02-25 07:57:00,
2013-02-25 01:12:00,30.7,23.0,29.99,ESE,110,0.0,0.0,74,0.00,,,0.00,weatherlink.com 1.10,2013-02-25 08:12:00,
2013-02-25 01:27:00,29.9,22.0,30.00,ESE,110,0.0,1.0,73,0.00,,,0.00,weatherlink.com 1.10,2013-02-25 08:27:00,
2013-02-25 01:42:00,29.8,21.0,30.00,WSW,249,0.0,2.0,70,0.00,,,0.00,weatherlink.com 1.10,2013-02-25 08:42:00,
2013-02-25 01:57:00,29.8,18.0,30.01,North,349,2.0,3.0,61,0.00,,,0.00,weatherlink.com 1.10,2013-02-25 08:57:00,
2013-02-25 02:12:00,29.8,18.0,30.01,North,9,0.0,2.0,63,0.00,,,0.00,weatherlink.com 1.10,2013-02-25 09:12:00,
2013-02-25 02:27:00,29.9,19.0,30.02,WSW,257,1.0,2.0,63,0.00,,,0.00,weatherlink.com 1.10,2013-02-25 09:27:00,
2013-02-25 02:42:00,29.3,23.0,30.03,WSW,239,0.0,1.0,77,0.00,,,0.00,weatherlink.com 1.10,2013-02-25 09:42:00,
2013-02-25 02:57:00,29.4,23.0,30.03,NW,323,2.0,2.0,78,0.00,,,0.00,weatherlink.com 1.10,2013-02-25 09:57:00,
2013-02-25 03:12:00,29.2,21.0,30.03,NNW,327,0.0,2.0,71,0.00,,,0.00,weatherlink.com 1.10,2013-02-25 10:12:00,
2013-02-25 03:27:00,29.2,18.0,30.04,NW,309,3.0,4.0,63,0.00,,,0.00,weatherlink.com 1.10,2013-02-25 10:27:00,
2013-02-25 03:42:00,29.0,17.0,30.04,NNW,337,1.0,4.0,60,0.00,,,0.00,weatherlink.com 1.10,2013-02-25 10:42:00,
2013-02-25 03:57:00,28.8,16.0,30.04,North,360,0.0,3.0,60,0.00,,,0.00,weatherlink.com 1.10,2013-02-25 10:57:00,
2013-02-25 04:13:00,28.3,16.0,30.05,NE,52,5.0,5.0,60,0.00,,,0.00,weatherlink.com 1.10,2013-02-25 11:13:00,
2013-02-25 04:28:00,28.0,15.0,30.06,West,278,2.0,7.0,58,0.00,,,0.00,weatherlink.com 1.10,2013-02-25 11:28:00,
2013-02-25 04:43:00,27.4,15.0,30.07,North,353,2.0,4.0,60,0.00,,,0.00,weatherlink.com 1.10,2013-02-25 11:43:00,
2013-02-25 04:58:00,27.1,15.0,30.08,NW,321,1.0,3.0,60,0.00,,,0.00,weatherlink.com 1.10,2013-02-25 11:58:00,
2013-02-25 05:13:00,26.7,14.0,30.09,NNE,25,0.0,3.0,60,0.00,,,0.00,weatherlink.com 1.10,2013-02-25 12:13:00,
2013-02-25 05:28:00,26.5,14.0,30.10,NNW,333,3.0,5.0,59,0.00,,,0.00,weatherlink.com 1.10,2013-02-25 12:28:00,
2013-02-25 05:43:00,26.6,14.0,30.10,NE,34,1.0,6.0,59,0.00,,,0.00,weatherlink.com 1.10,2013-02-25 12:43:00,
2013-02-25 05:58:00,26.3,14.0,30.11,NNW,347,0.0,4.0,60,0.00,,,0.00,weatherlink.com 1.10,2013-02-25 12:58:00,
2013-02-25 06:13:00,26.1,14.0,30.11,NW,326,3.0,3.0,61,0.00,,,0.00,weatherlink.com 1.10,2013-02-25 13:13:00,
2013-02-25 06:28:00,26.0,14.0,30.12,NNW,338,1.0,4.0,61,0.00,,,0.00,weatherlink.com 1.10,2013-02-25 13:28:00,
2013-02-25 06:43:00,26.2,14.0,30.13,ENE,72,0.0,4.0,61,0.00,,,0.00,weatherlink.com 1.10,2013-02-25 13:43:00,
2013-02-25 06:58:00,26.3,15.0,30.13,SE,130,1.0,3.0,63,0.00,,,0.00,weatherlink.com 1.10,2013-02-25 13:58:00,
2013-02-25 07:13:00,28.2,17.0,30.14,NNW,345,1.0,2.0,64,0.00,,,0.00,weatherlink.com 1.10,2013-02-25 14:13:00,
2013-02-25 07:28:00,28.8,15.0,30.15,North,349,2.0,4.0,56,0.00,,,0.00,weatherlink.com 1.10,2013-02-25 14:28:00,
2013-02-25 07:43:00,28.6,14.0,30.16,NNW,337,2.0,6.0,55,0.00,,,0.00,weatherlink.com 1.10,2013-02-25 14:43:00,
2013-02-25 07:59:00,28.9,14.0,30.17,North,354,1.0,11.0,55,0.00,,,0.00,weatherlink.com 1.10,2013-02-25 14:59:00,
2013-02-25 08:13:00,29.8,15.0,30.17,NNW,330,4.0,6.0,54,0.00,,,0.00,weatherlink.com 1.10,2013-02-25 15:13:00,
2013-02-25 08:28:00,30.7,16.0,30.18,WNW,294,4.0,6.0,54,0.00,,,0.00,weatherlink.com 1.10,2013-02-25 15:28:00,
2013-02-25 08:43:00,32.0,15.0,30.18,North,350,1.0,12.0,49,0.00,,,0.00,weatherlink.com 1.10,2013-02-25 15:43:00,